Time;durP1;ratioP1;P1;durP2;ratioP2;P2;SDS_P1;SDS_P2;PMS_P1;PMS_P2;Temp;Humidity;BMP_temperature;BMP_pressure;BME280_temperature;BME280_humidity;BME280_pressure;Samples;Min_cycle;Max_cycle;Signal;HPM_P1;HPM_P2
2023/01/31 00:01:30;;;;;;;4.70;2.43;;;3.10;99.90;;;;;;5048306;28;20537;-79
2023/01/31 00:03:59;;;;;;;2.43;1.40;;;3.00;99.90;;;;;;5069961;28;20452;-79
2023/01/31 00:06:31;;;;;;;8.20;3.20;;;3.00;99.90;;;;;;5064859;28;20846;-79
2023/01/31 00:09:00;;;;;;;3.53;1.77;;;3.00;99.90;;;;;;5057636;28;20521;-79
2023/01/31 00:11:30;;;;;;;8.13;1.93;;;3.00;99.90;;;;;;5064966;28;20513;-79
2023/01/31 00:14:00;;;;;;;3.27;2.33;;;2.90;99.90;;;;;;5063078;28;20460;-79
2023/01/31 00:16:28;;;;;;;3.40;3.10;;;2.90;99.90;;;;;;5056131;28;20482;-79
2023/01/31 00:18:55;;;;;;;2.90;2.23;;;2.90;99.90;;;;;;5062123;28;20521;-79
2023/01/31 00:21:24;;;;;;;6.93;2.00;;;2.90;99.90;;;;;;5049440;28;20487;-79
2023/01/31 00:23:55;;;;;;;2.03;1.47;;;2.90;99.90;;;;;;5070056;28;20549;-79
2023/01/31 00:26:28;;;;;;;1.80;1.30;;;2.90;99.90;;;;;;5057121;28;20516;-79
2023/01/31 00:28:58;;;;;;;3.90;2.43;;;2.90;99.90;;;;;;5067062;28;20597;-79
2023/01/31 00:31:26;;;;;;;3.20;1.47;;;3.00;99.90;;;;;;5071798;28;20519;-79
2023/01/31 00:33:54;;;;;;;6.10;2.07;;;2.90;99.90;;;;;;5067056;28;20486;-79
2023/01/31 00:36:24;;;;;;;4.30;2.07;;;2.90;99.90;;;;;;5054721;28;20460;-79
2023/01/31 00:38:54;;;;;;;3.23;1.40;;;2.80;99.90;;;;;;5057797;28;20855;-79
2023/01/31 00:41:22;;;;;;;3.57;2.63;;;2.80;99.90;;;;;;5055384;28;20492;-79
2023/01/31 00:43:52;;;;;;;3.43;2.50;;;2.80;99.90;;;;;;5053186;28;20554;-79
2023/01/31 00:46:21;;;;;;;6.10;3.23;;;2.80;99.90;;;;;;5084749;28;20471;-79
2023/01/31 00:48:48;;;;;;;2.17;1.83;;;2.80;99.90;;;;;;5063673;28;20469;-79
2023/01/31 00:51:17;;;;;;;2.30;1.87;;;2.80;99.90;;;;;;5068767;28;20544;-79
2023/01/31 00:53:45;;;;;;;4.50;2.23;;;2.90;99.90;;;;;;5059905;28;20797;-79
2023/01/31 00:56:13;;;;;;;2.43;1.43;;;2.90;99.90;;;;;;5068763;28;20978;-79
2023/01/31 00:58:41;;;;;;;1.80;1.60;;;2.90;99.90;;;;;;5061154;28;20541;-79
2023/01/31 01:01:11;;;;;;;2.07;1.90;;;2.90;99.90;;;;;;5067424;28;20543;-79
2023/01/31 01:03:41;;;;;;;3.20;1.87;;;3.00;99.90;;;;;;5076875;28;20840;-79
2023/01/31 01:06:09;;;;;;;6.00;2.40;;;3.00;99.90;;;;;;5055165;28;20545;-79
2023/01/31 01:08:39;;;;;;;2.23;2.13;;;3.00;99.90;;;;;;5068081;28;20490;-79
2023/01/31 01:11:10;;;;;;;5.30;2.93;;;3.00;99.90;;;;;;5066836;28;20626;-79
2023/01/31 01:13:45;;;;;;;3.63;2.00;;;3.00;99.90;;;;;;5066078;28;20471;-79
2023/01/31 01:16:16;;;;;;;8.13;1.63;;;3.00;99.90;;;;;;5056614;28;21057;-79
2023/01/31 01:18:49;;;;;;;3.10;1.57;;;3.00;99.90;;;;;;5060979;28;20488;-79
2023/01/31 01:21:18;;;;;;;2.47;1.73;;;3.00;99.90;;;;;;5066652;28;20476;-79
2023/01/31 01:23:46;;;;;;;4.60;2.07;;;3.00;99.90;;;;;;5058798;28;20499;-79
2023/01/31 01:26:15;;;;;;;4.60;2.60;;;2.90;99.90;;;;;;5062095;28;20469;-79
2023/01/31 01:28:43;;;;;;;2.20;1.83;;;2.90;99.90;;;;;;5062514;28;20484;-79
2023/01/31 01:31:12;;;;;;;1.97;1.50;;;2.90;99.90;;;;;;5072502;28;20461;-82
2023/01/31 01:33:39;;;;;;;5.60;2.50;;;2.70;99.90;;;;;;5060969;28;20452;-79
2023/01/31 01:36:10;;;;;;;8.73;1.93;;;2.80;99.90;;;;;;5066763;28;20550;-79
2023/01/31 01:38:40;;;;;;;6.33;2.93;;;2.80;99.90;;;;;;5058807;28;20463;-79
2023/01/31 01:41:09;;;;;;;3.30;2.20;;;2.90;99.90;;;;;;5065853;28;20487;-79
2023/01/31 01:43:41;;;;;;;5.20;2.53;;;2.90;99.90;;;;;;5060547;28;20553;-79
2023/01/31 01:46:11;;;;;;;5.53;2.80;;;2.90;99.90;;;;;;5065384;28;20517;-79
2023/01/31 01:48:38;;;;;;;3.07;2.63;;;2.90;99.90;;;;;;5054663;28;20489;-79
2023/01/31 01:51:08;;;;;;;2.80;1.97;;;2.90;99.90;;;;;;5076070;28;20471;-79
2023/01/31 01:53:39;;;;;;;4.00;2.70;;;2.80;99.90;;;;;;5068206;28;20930;-78
2023/01/31 01:56:13;;;;;;;6.83;2.30;;;2.70;99.90;;;;;;5065870;28;20483;-79
2023/01/31 01:58:46;;;;;;;2.50;1.80;;;2.70;99.90;;;;;;5067140;28;20453;-79
2023/01/31 02:01:22;;;;;;;2.63;1.77;;;2.70;99.90;;;;;;5080858;28;20475;-79
2023/01/31 02:03:51;;;;;;;5.23;2.37;;;2.70;99.90;;;;;;5078171;28;20451;-79
2023/01/31 02:06:23;;;;;;;3.53;1.73;;;2.70;99.90;;;;;;5064236;28;21043;-79
2023/01/31 02:08:55;;;;;;;5.80;2.23;;;2.70;99.90;;;;;;5078110;28;20528;-79
2023/01/31 02:11:26;;;;;;;3.17;1.73;;;2.80;99.90;;;;;;5064585;28;20455;-79
2023/01/31 02:14:01;;;;;;;3.63;1.77;;;2.80;99.90;;;;;;5071138;28;20926;-79
2023/01/31 02:16:31;;;;;;;2.67;1.80;;;2.80;99.90;;;;;;5063636;28;20491;-79
2023/01/31 02:18:59;;;;;;;4.30;2.93;;;2.80;99.90;;;;;;5080369;28;20452;-79
2023/01/31 02:21:54;;;;;;;4.50;2.00;;;2.70;99.90;;;;;;5065814;28;21111;-79
2023/01/31 02:25:12;;;;;;;7.13;1.43;;;2.70;99.90;;;;;;5060808;28;20449;-79
2023/01/31 02:28:10;;;;;;;3.97;1.87;;;2.80;99.90;;;;;;5053414;28;20784;-79
2023/01/31 02:31:05;;;;;;;6.33;2.40;;;2.70;99.90;;;;;;5061944;28;20488;-79
2023/01/31 02:33:40;;;;;;;3.10;2.00;;;2.70;99.90;;;;;;5049544;28;20541;-79
2023/01/31 02:36:19;;;;;;;3.47;1.53;;;2.70;99.90;;;;;;5061668;28;20604;-79
2023/01/31 02:39:02;;;;;;;5.90;2.50;;;2.80;99.90;;;;;;5061874;28;20451;-79
2023/01/31 02:41:38;;;;;;;2.03;1.40;;;2.90;99.90;;;;;;5054112;28;20476;-79
2023/01/31 02:47:04;;;;;;;2.40;1.87;;;2.80;99.90;;;;;;5057308;28;20546;-79
2023/01/31 02:49:38;;;;;;;4.17;2.70;;;2.90;99.90;;;;;;5064267;28;20557;-79
2023/01/31 02:52:16;;;;;;;3.13;1.70;;;2.90;99.90;;;;;;5063335;28;20470;-79
2023/01/31 02:57:36;;;;;;;2.97;1.70;;;2.90;99.90;;;;;;5051655;28;20459;-79
2023/01/31 03:00:08;;;;;;;2.90;2.23;;;2.90;99.90;;;;;;5058042;28;20922;-79
2023/01/31 03:02:37;;;;;;;3.10;1.93;;;2.90;99.90;;;;;;5050109;28;20493;-79
2023/01/31 03:05:06;;;;;;;3.70;2.00;;;3.00;99.90;;;;;;5061677;28;20518;-79
2023/01/31 03:07:37;;;;;;;2.33;1.93;;;2.90;99.90;;;;;;5052033;28;20515;-79
2023/01/31 03:10:16;;;;;;;3.33;2.20;;;2.90;99.90;;;;;;5053170;28;20864;-78
2023/01/31 03:13:08;;;;;;;4.57;2.40;;;3.00;99.90;;;;;;5061893;28;20838;-78
2023/01/31 03:18:42;;;;;;;3.33;1.80;;;2.90;99.90;;;;;;5036859;28;20432;-78
2023/01/31 03:21:14;;;;;;;3.57;3.27;;;3.00;99.90;;;;;;5063882;28;20548;-79
2023/01/31 03:23:45;;;;;;;2.83;2.20;;;3.00;99.90;;;;;;5062029;28;20460;-79
2023/01/31 03:26:12;;;;;;;2.03;1.73;;;3.00;99.90;;;;;;5061562;28;20496;-81
2023/01/31 03:28:42;;;;;;;3.13;1.40;;;3.00;99.90;;;;;;5052528;28;20532;-81
2023/01/31 03:31:25;;;;;;;5.00;1.80;;;3.00;99.90;;;;;;5060952;28;20467;-81
2023/01/31 03:33:56;;;;;;;2.80;1.70;;;2.90;99.90;;;;;;5061264;28;20492;-79
2023/01/31 03:36:32;;;;;;;4.30;1.63;;;3.00;99.90;;;;;;5060671;28;20545;-78
2023/01/31 03:39:09;;;;;;;4.90;1.37;;;3.00;99.90;;;;;;5062196;28;20468;-79
2023/01/31 03:41:47;;;;;;;3.07;1.00;;;3.00;99.90;;;;;;5058964;28;20480;-79
2023/01/31 03:44:19;;;;;;;2.67;1.37;;;3.00;99.90;;;;;;5062301;28;20529;-79
2023/01/31 03:46:51;;;;;;;6.33;2.27;;;3.00;99.90;;;;;;5052133;28;20825;-79
2023/01/31 03:49:20;;;;;;;2.77;1.33;;;2.90;99.90;;;;;;5055887;28;20480;-79
2023/01/31 03:51:52;;;;;;;2.43;1.57;;;3.00;99.90;;;;;;5060530;28;20480;-79
2023/01/31 03:54:26;;;;;;;3.07;2.00;;;3.00;99.90;;;;;;5062102;28;20566;-79
2023/01/31 03:56:58;;;;;;;2.73;1.07;;;3.00;99.90;;;;;;5051663;28;20491;-80
2023/01/31 03:59:29;;;;;;;5.10;1.23;;;3.00;99.90;;;;;;5062995;28;20488;-79
2023/01/31 04:01:58;;;;;;;3.53;1.10;;;2.90;99.90;;;;;;5059877;28;20608;-79
2023/01/31 04:04:28;;;;;;;5.40;2.10;;;2.90;99.90;;;;;;5053567;28;20546;-79
2023/01/31 04:06:57;;;;;;;3.07;1.93;;;3.00;99.90;;;;;;5058003;28;20448;-79
2023/01/31 04:09:26;;;;;;;6.53;1.90;;;2.90;99.90;;;;;;5051567;28;20771;-78
2023/01/31 04:11:53;;;;;;;3.00;1.43;;;3.00;99.90;;;;;;5056942;28;20944;-78
2023/01/31 04:14:20;;;;;;;10.23;1.90;;;2.90;99.90;;;;;;5061859;28;20770;-79
2023/01/31 04:16:47;;;;;;;3.47;1.90;;;3.00;99.90;;;;;;5062170;28;20832;-79
2023/01/31 04:19:14;;;;;;;2.40;1.77;;;3.00;99.90;;;;;;5054062;28;20464;-79
2023/01/31 04:21:41;;;;;;;5.37;1.10;;;3.00;99.90;;;;;;5059117;28;20875;-81
2023/01/31 04:24:09;;;;;;;2.53;1.73;;;2.90;99.90;;;;;;5062296;28;20452;-81
2023/01/31 04:26:37;;;;;;;2.63;1.73;;;3.00;99.90;;;;;;5049719;28;20502;-81
2023/01/31 04:29:04;;;;;;;1.53;1.30;;;3.00;99.90;;;;;;5059617;28;20478;-81
2023/01/31 04:31:34;;;;;;;5.07;1.40;;;3.00;99.90;;;;;;5055907;28;20514;-81
2023/01/31 04:34:01;;;;;;;3.57;1.90;;;3.00;99.90;;;;;;5059998;28;20468;-81
2023/01/31 04:36:27;;;;;;;9.83;1.67;;;2.90;99.90;;;;;;5060003;28;20906;-81
2023/01/31 04:38:54;;;;;;;5.97;1.87;;;3.00;99.90;;;;;;5054435;28;20880;-81
2023/01/31 04:41:23;;;;;;;7.77;1.53;;;2.90;99.90;;;;;;5046240;28;20564;-78
2023/01/31 04:43:50;;;;;;;3.40;1.63;;;2.90;99.90;;;;;;5049874;28;20961;-80
2023/01/31 04:46:16;;;;;;;4.03;2.93;;;2.90;99.90;;;;;;5043749;28;20485;-81
2023/01/31 04:48:43;;;;;;;3.20;1.40;;;2.90;99.90;;;;;;5057213;28;21015;-81
2023/01/31 04:51:11;;;;;;;2.70;1.53;;;2.90;99.90;;;;;;5058147;28;20908;-81
2023/01/31 04:53:38;;;;;;;2.40;1.47;;;2.90;99.90;;;;;;5046844;28;20560;-81
2023/01/31 04:56:05;;;;;;;4.23;2.03;;;2.90;99.90;;;;;;5049259;28;20520;-78
2023/01/31 04:58:36;;;;;;;2.70;1.60;;;3.00;99.90;;;;;;5057287;28;20840;-78
2023/01/31 05:01:03;;;;;;;8.43;1.60;;;2.90;99.90;;;;;;5051211;28;20469;-78
2023/01/31 05:03:30;;;;;;;4.17;1.33;;;3.00;99.90;;;;;;5054155;28;20496;-81
2023/01/31 05:05:57;;;;;;;7.70;2.80;;;3.00;99.90;;;;;;5058259;28;20517;-81
2023/01/31 05:08:24;;;;;;;3.83;1.67;;;3.00;99.90;;;;;;5050430;28;20522;-81
2023/01/31 05:10:57;;;;;;;5.70;1.47;;;3.00;99.90;;;;;;5055815;28;20456;-79
2023/01/31 05:13:25;;;;;;;3.37;1.57;;;3.00;99.90;;;;;;5049410;28;20555;-81
2023/01/31 05:15:53;;;;;;;4.63;1.47;;;3.00;99.90;;;;;;5063201;28;20488;-81
2023/01/31 05:18:23;;;;;;;3.10;1.27;;;3.00;99.90;;;;;;5058156;28;20857;-81
2023/01/31 05:20:52;;;;;;;2.17;1.17;;;3.00;99.90;;;;;;5060384;28;20487;-80
2023/01/31 05:23:19;;;;;;;2.03;1.67;;;3.00;99.90;;;;;;5054297;28;20458;-81
2023/01/31 05:25:50;;;;;;;4.30;2.13;;;2.90;99.90;;;;;;5054425;28;20507;-81
2023/01/31 05:28:18;;;;;;;2.10;0.93;;;2.90;99.90;;;;;;5052333;28;20465;-81
2023/01/31 05:30:45;;;;;;;2.07;1.60;;;2.80;99.90;;;;;;5057679;28;20525;-80
2023/01/31 05:33:13;;;;;;;4.80;1.83;;;2.80;99.90;;;;;;5063153;28;20583;-80
2023/01/31 05:35:49;;;;;;;6.13;1.87;;;2.80;99.90;;;;;;5058662;28;20835;-81
2023/01/31 05:38:19;;;;;;;3.23;1.07;;;2.80;99.90;;;;;;5066709;28;20447;-78
2023/01/31 05:40:46;;;;;;;3.80;1.40;;;2.70;99.90;;;;;;5056832;28;20478;-82
2023/01/31 05:43:13;;;;;;;3.27;1.87;;;2.70;99.90;;;;;;5056307;28;21179;-79
2023/01/31 05:45:40;;;;;;;2.43;1.57;;;2.70;99.90;;;;;;5057125;28;20941;-79
2023/01/31 05:48:09;;;;;;;1.70;1.17;;;2.80;99.90;;;;;;5063661;28;20484;-79
2023/01/31 05:50:40;;;;;;;5.10;1.47;;;2.80;99.90;;;;;;5063834;28;20663;-80
2023/01/31 05:53:08;;;;;;;2.57;2.23;;;2.80;99.90;;;;;;5062728;28;21077;-80
2023/01/31 05:55:37;;;;;;;2.77;1.47;;;2.80;99.90;;;;;;5057733;28;20452;-79
2023/01/31 05:58:04;;;;;;;3.67;0.90;;;2.80;99.90;;;;;;5056336;28;20542;-79
2023/01/31 06:00:34;;;;;;;4.73;1.87;;;2.80;99.90;;;;;;5054369;28;20956;-79
2023/01/31 06:03:01;;;;;;;5.50;1.20;;;2.90;99.90;;;;;;5060595;28;20479;-79
2023/01/31 06:05:30;;;;;;;2.17;1.37;;;2.90;99.90;;;;;;5056075;28;20801;-79
2023/01/31 06:08:01;;;;;;;4.23;1.33;;;2.90;99.90;;;;;;5052522;28;20508;-79
2023/01/31 06:10:31;;;;;;;3.67;1.70;;;2.80;99.90;;;;;;5062178;28;20483;-79
2023/01/31 06:13:01;;;;;;;6.00;1.57;;;2.80;99.90;;;;;;5058769;28;20815;-78
2023/01/31 06:15:30;;;;;;;3.60;1.90;;;2.90;99.90;;;;;;5051440;28;20482;-79
2023/01/31 06:17:59;;;;;;;3.93;1.37;;;2.80;99.90;;;;;;5059808;28;20549;-79
2023/01/31 06:20:26;;;;;;;1.87;1.40;;;2.80;99.90;;;;;;5058918;28;20951;-79
2023/01/31 06:22:53;;;;;;;1.57;1.47;;;2.80;99.90;;;;;;5059600;28;20912;-79
2023/01/31 06:25:21;;;;;;;2.83;1.23;;;2.80;99.90;;;;;;5060357;28;20577;-79
2023/01/31 06:27:48;;;;;;;2.90;1.73;;;2.80;99.90;;;;;;5053073;28;20513;-79
2023/01/31 06:30:15;;;;;;;2.10;1.80;;;2.80;99.90;;;;;;5061184;28;20472;-79
2023/01/31 06:32:46;;;;;;;1.90;1.23;;;2.80;99.90;;;;;;5055250;28;20514;-78
2023/01/31 06:35:13;;;;;;;3.77;1.63;;;2.80;99.90;;;;;;5061299;28;20934;-79
2023/01/31 06:37:40;;;;;;;1.97;1.00;;;2.70;99.90;;;;;;5055693;28;20544;-79
2023/01/31 06:40:08;;;;;;;4.30;1.47;;;2.70;99.90;;;;;;5056328;28;20561;-79
2023/01/31 06:42:38;;;;;;;6.70;2.23;;;2.70;99.90;;;;;;5053635;28;20668;-79
2023/01/31 06:45:06;;;;;;;2.10;1.60;;;2.60;99.90;;;;;;5057757;28;20545;-79
2023/01/31 06:47:32;;;;;;;3.13;1.50;;;2.70;99.90;;;;;;5055554;28;20905;-78
2023/01/31 06:49:59;;;;;;;2.33;1.10;;;2.70;99.90;;;;;;5054728;28;20488;-79
2023/01/31 06:52:27;;;;;;;4.20;1.43;;;2.60;99.90;;;;;;5057675;28;20464;-79
2023/01/31 06:54:57;;;;;;;2.27;1.63;;;2.60;99.90;;;;;;5060926;28;20499;-79
2023/01/31 06:57:24;;;;;;;1.80;1.40;;;2.70;99.90;;;;;;5059307;28;20994;-78
2023/01/31 06:59:53;;;;;;;2.97;0.90;;;2.70;99.90;;;;;;5060398;28;20465;-79
2023/01/31 07:02:22;;;;;;;2.40;1.10;;;2.70;99.90;;;;;;5058653;28;20569;-79
2023/01/31 07:04:49;;;;;;;5.17;1.27;;;2.60;99.90;;;;;;5059693;28;20458;-78
2023/01/31 07:07:18;;;;;;;5.43;1.40;;;2.70;99.90;;;;;;5060345;28;20506;-79
2023/01/31 07:09:45;;;;;;;2.30;0.90;;;2.60;99.90;;;;;;5060025;28;20592;-79
2023/01/31 07:12:12;;;;;;;4.00;1.63;;;2.70;99.90;;;;;;5062321;28;20484;-79
2023/01/31 07:14:41;;;;;;;1.70;1.20;;;2.60;99.90;;;;;;5060325;28;20541;-79
2023/01/31 07:17:09;;;;;;;2.50;1.53;;;2.70;99.90;;;;;;5062307;28;20503;-79
2023/01/31 07:19:36;;;;;;;3.50;1.47;;;2.70;99.90;;;;;;5060431;28;20501;-79
2023/01/31 07:22:03;;;;;;;5.33;1.57;;;2.70;99.90;;;;;;5058218;28;20495;-79
2023/01/31 07:24:32;;;;;;;4.63;1.17;;;2.70;99.90;;;;;;5060666;28;20464;-79
2023/01/31 07:27:09;;;;;;;;;;;;;;;;;;;;;
2023/01/31 07:29:36;;;;;;;2.87;0.97;;;2.70;99.90;;;;;;5062114;28;20446;-79
2023/01/31 07:32:04;;;;;;;1.17;0.80;;;2.70;99.90;;;;;;5064114;28;20460;-79
2023/01/31 07:34:34;;;;;;;2.80;1.90;;;2.70;99.90;;;;;;5055685;28;20471;-78
2023/01/31 07:37:02;;;;;;;4.47;1.20;;;2.70;99.90;;;;;;5059856;28;20495;-79
2023/01/31 07:39:29;;;;;;;1.40;1.30;;;2.70;99.90;;;;;;5056427;28;20935;-79
2023/01/31 07:41:56;;;;;;;5.07;1.47;;;2.70;99.90;;;;;;5055091;28;20487;-79
2023/01/31 07:44:24;;;;;;;3.07;1.90;;;2.70;99.90;;;;;;5056491;28;20783;-79
2023/01/31 07:46:55;;;;;;;2.50;1.50;;;2.80;99.90;;;;;;5060125;28;20789;-79
2023/01/31 07:49:22;;;;;;;4.23;1.57;;;2.80;99.90;;;;;;5062686;28;20440;-79
2023/01/31 07:51:50;;;;;;;4.03;1.80;;;2.80;99.90;;;;;;5059900;28;21564;-79
2023/01/31 07:54:19;;;;;;;5.30;2.00;;;2.80;99.90;;;;;;5062752;28;20484;-79
2023/01/31 07:56:46;;;;;;;3.33;0.90;;;2.80;99.90;;;;;;5055698;28;20571;-79
2023/01/31 07:59:13;;;;;;;1.77;1.17;;;2.90;99.90;;;;;;5050930;28;20928;-79
2023/01/31 08:04:24;;;;;;;4.00;1.23;;;2.90;99.90;;;;;;5060523;28;20459;-79
2023/01/31 08:06:55;;;;;;;7.00;1.03;;;2.90;99.90;;;;;;5053857;28;20961;-79
2023/01/31 08:09:23;;;;;;;1.40;1.10;;;2.90;99.90;;;;;;5059721;28;20876;-79
2023/01/31 08:11:50;;;;;;;4.47;1.80;;;2.90;99.90;;;;;;5055403;28;20541;-79
2023/01/31 08:14:22;;;;;;;2.30;1.17;;;2.90;99.90;;;;;;5054274;28;20468;-79
2023/01/31 08:16:49;;;;;;;6.10;1.97;;;2.90;99.90;;;;;;5054097;28;20511;-81
2023/01/31 08:19:16;;;;;;;1.47;1.00;;;2.90;99.90;;;;;;5059221;28;20868;-81
2023/01/31 08:21:51;;;;;;;1.93;1.67;;;2.90;99.90;;;;;;5058250;28;20476;-81
2023/01/31 08:24:19;;;;;;;4.23;1.60;;;2.90;99.90;;;;;;5062046;28;20481;-81
2023/01/31 08:26:48;;;;;;;7.40;1.10;;;2.90;99.90;;;;;;5058821;28;20483;-79
2023/01/31 08:29:15;;;;;;;3.73;1.97;;;2.90;99.90;;;;;;5061297;28;20973;-81
2023/01/31 08:31:42;;;;;;;1.47;1.10;;;2.90;99.90;;;;;;5057075;28;20505;-78
2023/01/31 08:34:09;;;;;;;1.50;0.80;;;2.90;99.90;;;;;;5060152;28;20530;-78
2023/01/31 08:36:36;;;;;;;2.20;1.10;;;3.00;99.90;;;;;;5059133;28;20487;-78
2023/01/31 08:39:07;;;;;;;1.90;1.07;;;3.00;99.90;;;;;;5053342;28;20533;-79
2023/01/31 08:41:37;;;;;;;2.10;1.87;;;3.00;99.90;;;;;;5057079;28;20500;-78
2023/01/31 08:44:04;;;;;;;10.17;3.10;;;3.00;99.90;;;;;;5052496;28;20496;-81
2023/01/31 08:46:33;;;;;;;5.93;2.80;;;3.00;99.90;;;;;;5055265;28;20518;-81
2023/01/31 08:49:04;;;;;;;6.40;2.40;;;3.00;99.90;;;;;;5051209;28;20630;-81
2023/01/31 08:51:34;;;;;;;1.90;1.23;;;2.90;99.90;;;;;;5057748;28;20784;-81
2023/01/31 08:54:04;;;;;;;1.90;1.10;;;2.90;99.90;;;;;;5055847;28;20468;-80
2023/01/31 08:56:30;;;;;;;10.67;2.40;;;2.90;99.90;;;;;;5061138;28;20503;-79
2023/01/31 08:59:01;;;;;;;12.10;2.90;;;3.00;99.90;;;;;;5061044;28;20519;-80
2023/01/31 09:01:34;;;;;;;2.37;1.43;;;3.00;99.90;;;;;;5059965;28;20521;-79
2023/01/31 09:04:01;;;;;;;4.03;2.30;;;3.10;99.90;;;;;;5049243;28;21003;-79
2023/01/31 09:06:32;;;;;;;3.93;1.60;;;3.10;99.90;;;;;;5064658;28;20564;-79
2023/01/31 09:08:59;;;;;;;7.37;2.53;;;3.20;99.90;;;;;;5061931;28;20960;-79
2023/01/31 09:11:29;;;;;;;9.83;2.17;;;3.20;99.90;;;;;;5063853;28;20993;-79
2023/01/31 09:13:56;;;;;;;3.97;1.47;;;3.30;99.90;;;;;;5050253;28;20464;-79
2023/01/31 09:16:28;;;;;;;2.70;1.50;;;3.20;99.90;;;;;;5055804;28;20476;-79
2023/01/31 09:18:55;;;;;;;3.07;1.20;;;3.20;99.90;;;;;;5052627;28;20819;-79
2023/01/31 09:21:23;;;;;;;3.60;1.20;;;3.30;99.90;;;;;;5066403;28;20464;-79
2023/01/31 09:23:58;;;;;;;1.80;1.30;;;3.30;99.90;;;;;;5064731;28;20548;-79
2023/01/31 09:26:25;;;;;;;2.67;1.23;;;3.30;99.90;;;;;;5062613;28;20515;-79
2023/01/31 09:28:52;;;;;;;1.50;1.07;;;3.30;99.90;;;;;;5062983;28;20850;-80
2023/01/31 09:31:20;;;;;;;2.27;1.10;;;3.30;99.90;;;;;;5063263;28;20453;-81
2023/01/31 09:33:49;;;;;;;4.37;0.90;;;3.30;99.90;;;;;;5046302;28;20500;-79
2023/01/31 09:36:17;;;;;;;4.10;1.20;;;3.30;99.90;;;;;;5062232;28;20488;-79
2023/01/31 09:38:49;;;;;;;4.53;2.10;;;3.30;99.90;;;;;;5063212;28;20925;-79
2023/01/31 09:41:26;;;;;;;2.93;1.50;;;3.40;99.90;;;;;;5058917;28;20561;-79
2023/01/31 09:43:56;;;;;;;2.30;1.10;;;3.50;99.90;;;;;;5064280;28;20520;-79
2023/01/31 09:46:28;;;;;;;4.03;1.10;;;3.60;99.90;;;;;;5061053;28;21307;-78
2023/01/31 09:49:00;;;;;;;5.27;0.80;;;3.70;99.90;;;;;;5060352;28;20492;-78
2023/01/31 09:51:28;;;;;;;1.00;0.90;;;3.80;99.90;;;;;;5063169;28;20971;-80
2023/01/31 09:53:56;;;;;;;2.37;1.10;;;4.00;99.90;;;;;;5057462;28;20488;-80
2023/01/31 09:56:31;;;;;;;2.33;1.33;;;4.00;99.90;;;;;;5061108;28;20472;-80
2023/01/31 09:59:11;;;;;;;6.83;1.23;;;4.10;99.90;;;;;;5060438;28;20908;-80
2023/01/31 10:01:45;;;;;;;4.13;0.80;;;4.00;99.90;;;;;;5063643;28;20973;-80
2023/01/31 10:04:38;;;;;;;3.60;1.43;;;3.90;99.90;;;;;;5056173;28;20495;-80
2023/01/31 10:07:12;;;;;;;3.90;1.00;;;4.00;99.90;;;;;;5063766;28;20509;-80
2023/01/31 10:09:43;;;;;;;4.97;1.10;;;4.00;99.90;;;;;;5061667;28;20918;-80
2023/01/31 10:12:15;;;;;;;1.37;0.83;;;3.90;99.90;;;;;;5060764;28;20851;-80
2023/01/31 10:14:49;;;;;;;1.90;1.30;;;4.00;99.90;;;;;;5053153;28;20835;-80
2023/01/31 10:17:22;;;;;;;4.33;1.60;;;4.00;99.90;;;;;;5057893;28;20517;-80
2023/01/31 10:19:57;;;;;;;4.23;1.37;;;4.00;99.90;;;;;;5056555;28;20467;-80
2023/01/31 10:22:34;;;;;;;4.00;1.47;;;4.10;99.90;;;;;;5062274;28;20448;-80
2023/01/31 10:25:09;;;;;;;7.43;1.93;;;4.10;99.90;;;;;;5062339;28;21015;-80
2023/01/31 10:27:42;;;;;;;3.93;1.10;;;4.10;99.90;;;;;;5060131;28;20926;-79
2023/01/31 10:30:19;;;;;;;4.33;0.73;;;4.10;99.90;;;;;;5054388;28;20566;-80
2023/01/31 10:32:52;;;;;;;2.93;1.40;;;4.20;99.90;;;;;;5059526;28;20544;-80
2023/01/31 10:35:26;;;;;;;2.60;1.27;;;4.30;99.90;;;;;;5061993;28;20499;-80
2023/01/31 10:37:57;;;;;;;2.80;1.23;;;4.40;99.90;;;;;;5052449;28;20988;-78
2023/01/31 10:40:30;;;;;;;1.23;0.87;;;4.30;99.90;;;;;;5061761;28;20652;-78
2023/01/31 10:43:02;;;;;;;2.37;1.17;;;4.20;99.90;;;;;;5056712;28;20457;-78
2023/01/31 10:45:32;;;;;;;1.60;1.10;;;4.30;99.90;;;;;;5065102;28;20456;-78
2023/01/31 10:48:14;;;;;;;2.87;1.77;;;4.40;99.90;;;;;;5055553;28;20454;-78
2023/01/31 10:50:56;;;;;;;6.90;2.00;;;4.40;99.90;;;;;;5058947;28;20519;-78
2023/01/31 10:53:37;;;;;;;4.73;1.40;;;4.50;99.90;;;;;;5057095;28;20701;-78
2023/01/31 10:56:07;;;;;;;4.43;1.63;;;4.60;99.90;;;;;;5065138;28;20475;-79
2023/01/31 10:58:35;;;;;;;1.70;0.83;;;4.50;99.90;;;;;;5060422;28;20519;-78
2023/01/31 11:01:07;;;;;;;2.30;0.53;;;4.50;99.90;;;;;;5063391;28;20499;-78
2023/01/31 11:03:36;;;;;;;1.47;0.80;;;4.40;99.90;;;;;;5053287;28;20942;-78
2023/01/31 11:06:05;;;;;;;1.97;1.13;;;4.40;99.90;;;;;;5062036;28;20490;-79
2023/01/31 11:08:35;;;;;;;2.90;0.80;;;4.50;99.90;;;;;;5061701;28;20456;-78
2023/01/31 11:11:07;;;;;;;10.40;1.00;;;4.30;99.90;;;;;;5052985;28;20472;-78
2023/01/31 11:13:37;;;;;;;2.00;0.87;;;4.30;99.90;;;;;;5059634;28;20463;-78
2023/01/31 11:16:08;;;;;;;1.90;0.70;;;4.30;99.90;;;;;;5061717;28;20440;-78
2023/01/31 11:18:37;;;;;;;1.07;0.97;;;4.30;99.90;;;;;;5059153;28;20534;-78
2023/01/31 11:21:08;;;;;;;1.83;1.20;;;4.30;99.90;;;;;;5055779;28;20473;-80
2023/01/31 11:23:37;;;;;;;0.97;0.60;;;4.30;99.90;;;;;;5055672;28;20457;-81
2023/01/31 11:26:07;;;;;;;4.80;1.10;;;4.40;99.90;;;;;;5058928;28;20488;-78
2023/01/31 11:28:36;;;;;;;1.17;0.60;;;4.50;99.90;;;;;;5061339;28;20623;-79
2023/01/31 11:31:05;;;;;;;2.90;1.20;;;4.50;99.90;;;;;;5060769;28;20448;-79
2023/01/31 11:33:42;;;;;;;8.30;1.13;;;4.50;99.90;;;;;;5059058;28;20537;-80
2023/01/31 11:36:13;;;;;;;2.10;0.70;;;4.50;99.90;;;;;;5058349;28;20475;-78
2023/01/31 11:38:40;;;;;;;2.20;1.07;;;4.50;99.90;;;;;;5046410;28;20614;-80
2023/01/31 11:41:29;;;;;;;1.97;0.60;;;4.50;99.90;;;;;;5058196;28;20506;-80
2023/01/31 11:44:14;;;;;;;5.87;0.77;;;4.50;99.90;;;;;;5048585;28;20942;-81
2023/01/31 11:46:51;;;;;;;5.63;1.07;;;4.50;99.90;;;;;;5059156;28;20440;-81
2023/01/31 11:49:34;;;;;;;0.50;0.30;;;4.40;99.90;;;;;;5058553;28;20578;-81
2023/01/31 11:52:12;;;;;;;1.33;0.90;;;4.50;99.90;;;;;;5057934;28;20528;-80
2023/01/31 11:54:41;;;;;;;1.77;0.50;;;4.60;99.90;;;;;;5057774;28;20514;-80
2023/01/31 11:57:15;;;;;;;1.87;1.27;;;4.60;99.90;;;;;;5049156;28;20455;-81
2023/01/31 11:59:42;;;;;;;2.90;0.80;;;4.60;99.90;;;;;;5060529;28;20519;-78
2023/01/31 12:02:30;;;;;;;3.13;0.60;;;4.60;99.90;;;;;;5044101;28;20496;-78
2023/01/31 12:04:58;;;;;;;0.97;0.53;;;4.60;99.90;;;;;;5055043;28;20694;-78
2023/01/31 12:07:29;;;;;;;1.10;0.50;;;4.60;99.90;;;;;;5051361;28;20572;-78
2023/01/31 12:09:56;;;;;;;1.77;0.60;;;4.60;99.90;;;;;;5059575;28;20449;-80
2023/01/31 12:12:30;;;;;;;1.60;0.40;;;4.40;99.90;;;;;;5054326;28;20480;-81
2023/01/31 12:15:02;;;;;;;1.40;0.57;;;4.40;99.90;;;;;;5053213;28;20519;-81
2023/01/31 12:17:31;;;;;;;6.87;1.50;;;4.30;99.90;;;;;;5054446;28;20510;-81
2023/01/31 12:20:18;;;;;;;4.00;0.80;;;4.30;99.90;;;;;;5061631;28;20480;-81
2023/01/31 12:22:55;;;;;;;2.40;0.67;;;4.20;99.90;;;;;;5057990;28;20479;-81
2023/01/31 12:25:35;;;;;;;2.20;0.60;;;4.20;99.90;;;;;;5054473;28;21033;-81
2023/01/31 12:28:10;;;;;;;2.50;0.60;;;4.20;99.90;;;;;;5060799;28;20539;-81
2023/01/31 12:31:03;;;;;;;4.10;0.60;;;4.20;99.90;;;;;;5063997;28;20509;-81
2023/01/31 12:33:43;;;;;;;8.63;2.10;;;4.10;99.90;;;;;;5058687;28;20471;-81
2023/01/31 12:36:31;;;;;;;2.53;1.60;;;4.10;99.90;;;;;;5062742;28;20799;-81
2023/01/31 12:39:18;;;;;;;3.20;1.20;;;4.10;99.90;;;;;;5057897;28;20520;-78
2023/01/31 12:42:01;;;;;;;3.60;1.80;;;4.10;99.90;;;;;;5059853;28;20570;-81
2023/01/31 12:44:41;;;;;;;9.17;2.20;;;4.10;99.90;;;;;;5061349;28;20473;-81
2023/01/31 12:47:21;;;;;;;8.60;1.83;;;4.00;99.90;;;;;;5066010;28;20483;-79
2023/01/31 12:50:00;;;;;;;3.77;1.87;;;4.00;99.90;;;;;;5063041;28;20966;-79
2023/01/31 12:52:41;;;;;;;3.37;1.93;;;4.00;99.90;;;;;;5068876;28;20479;-79
2023/01/31 12:55:21;;;;;;;3.77;1.63;;;3.90;99.90;;;;;;5067019;28;20455;-79
2023/01/31 12:57:56;;;;;;;1.43;0.60;;;3.90;99.90;;;;;;5065407;28;20487;-79
2023/01/31 13:00:31;;;;;;;6.27;1.83;;;3.90;99.90;;;;;;5064571;28;20443;-79
2023/01/31 13:03:23;;;;;;;7.13;1.17;;;3.90;99.90;;;;;;5061071;28;20462;-79
2023/01/31 13:05:56;;;;;;;4.13;0.80;;;3.90;99.90;;;;;;5061100;28;20895;-79
2023/01/31 13:08:29;;;;;;;1.00;0.90;;;3.90;99.90;;;;;;5069011;28;20509;-80
2023/01/31 13:11:04;;;;;;;2.17;1.30;;;3.90;99.90;;;;;;5064957;28;20491;-79
2023/01/31 13:13:37;;;;;;;2.50;0.70;;;4.00;99.90;;;;;;5062292;28;20579;-79
2023/01/31 13:16:10;;;;;;;2.20;0.90;;;4.00;99.90;;;;;;5063739;28;20484;-79
2023/01/31 13:18:41;;;;;;;3.43;1.03;;;4.00;99.90;;;;;;5062569;28;20523;-79
2023/01/31 13:21:13;;;;;;;3.33;1.07;;;4.00;99.90;;;;;;5061777;28;20773;-79
2023/01/31 13:23:43;;;;;;;6.73;0.97;;;4.00;99.90;;;;;;5063625;28;20544;-79
2023/01/31 13:26:15;;;;;;;2.90;0.90;;;3.90;99.90;;;;;;5068328;28;20522;-79
2023/01/31 13:28:48;;;;;;;5.83;1.37;;;3.90;99.90;;;;;;5062750;28;20829;-79
2023/01/31 13:31:20;;;;;;;7.13;1.70;;;3.90;99.90;;;;;;5066363;28;20557;-79